createdAt,value
2023-10-26T00:01:56.225Z,4.63
2023-10-26T00:05:18.086Z,4.40
2023-10-26T00:08:40.018Z,4.47
2023-10-26T00:12:01.930Z,3.78
2023-10-26T00:15:23.648Z,4.63
2023-10-26T00:18:45.636Z,4.95
2023-10-26T00:22:07.450Z,4.13
2023-10-26T00:25:29.594Z,4.43
2023-10-26T00:28:51.409Z,5.53
2023-10-26T00:32:13.304Z,3.88
2023-10-26T00:35:35.077Z,4.40
2023-10-26T00:38:56.941Z,3.97
2023-10-26T00:42:18.678Z,5.75
2023-10-26T00:45:40.717Z,5.18
2023-10-26T00:49:02.783Z,5.43
2023-10-26T00:52:24.828Z,4.90
2023-10-26T00:55:49.620Z,4.28
2023-10-26T00:59:11.899Z,5.15
2023-10-26T01:02:33.773Z,4.88
2023-10-26T01:05:55.733Z,5.40
2023-10-26T01:09:17.492Z,6.10
2023-10-26T01:12:40.365Z,5.10
2023-10-26T01:16:05.542Z,5.30
2023-10-26T01:19:43.373Z,5.40
2023-10-26T01:23:05.547Z,5.85
2023-10-26T01:26:27.391Z,5.43
2023-10-26T01:29:49.116Z,5.20
2023-10-26T01:33:10.949Z,6.32
2023-10-26T01:36:33.158Z,6.10
2023-10-26T01:39:55.592Z,5.78
2023-10-26T01:43:17.319Z,5.70
2023-10-26T01:46:39.252Z,5.40
2023-10-26T01:50:01.204Z,5.22
2023-10-26T01:53:25.008Z,6.35
2023-10-26T01:56:47.082Z,4.47
2023-10-26T02:00:10.139Z,5.30
2023-10-26T02:03:36.905Z,5.60
2023-10-26T02:06:59.153Z,5.03
2023-10-26T02:10:22.556Z,5.93
2023-10-26T02:13:45.908Z,5.78
2023-10-26T02:17:09.307Z,5.05
2023-10-26T02:20:32.685Z,6.10
2023-10-26T02:23:56.596Z,4.50
2023-10-26T02:27:20.349Z,3.53
2023-10-26T02:30:45.660Z,4.80
2023-10-26T02:34:09.441Z,5.00
2023-10-26T02:37:39.600Z,4.20
2023-10-26T02:41:06.689Z,4.85
2023-10-26T02:44:30.359Z,4.70
2023-10-26T02:47:54.174Z,4.95
2023-10-26T02:51:17.841Z,4.72
2023-10-26T02:54:42.608Z,4.70
2023-10-26T02:58:07.183Z,4.57
2023-10-26T03:01:34.909Z,4.32
2023-10-26T03:05:02.337Z,4.07
2023-10-26T03:08:26.201Z,5.18
2023-10-26T03:11:51.116Z,5.75
2023-10-26T03:15:15.681Z,5.90
2023-10-26T03:18:40.318Z,5.72
2023-10-26T03:22:05.099Z,7.32
2023-10-26T03:25:28.808Z,6.47
2023-10-26T03:28:54.280Z,6.82
2023-10-26T03:32:17.928Z,7.22
2023-10-26T03:35:41.613Z,7.43
2023-10-26T03:39:05.876Z,6.20
2023-10-26T03:42:29.817Z,7.55
2023-10-26T03:45:53.618Z,5.70
2023-10-26T03:49:17.532Z,6.05
2023-10-26T03:52:41.272Z,5.93
2023-10-26T03:56:05.649Z,6.45
2023-10-26T03:59:29.437Z,6.72
2023-10-26T04:02:53.654Z,5.45
2023-10-26T04:06:17.572Z,6.07
2023-10-26T04:09:41.567Z,6.63
2023-10-26T04:13:32.452Z,6.90
2023-10-26T04:16:57.334Z,6.63
2023-10-26T04:20:23.980Z,7.03
2023-10-26T04:23:47.894Z,4.35
2023-10-26T04:27:45.177Z,6.35
2023-10-26T04:31:09.395Z,5.82
2023-10-26T04:34:33.323Z,5.95
2023-10-26T04:38:03.641Z,4.72
2023-10-26T04:41:56.257Z,5.57
2023-10-26T04:45:24.374Z,6.75
2023-10-26T04:49:24.794Z,6.18
2023-10-26T04:52:49.216Z,5.80
2023-10-26T04:56:13.133Z,6.45
2023-10-26T04:59:49.539Z,6.70
2023-10-26T05:03:15.354Z,6.28
2023-10-26T05:06:45.583Z,6.82
2023-10-26T05:10:11.398Z,7.25
2023-10-26T05:13:39.649Z,5.80
2023-10-26T05:17:20.749Z,6.40
2023-10-26T05:20:56.615Z,4.90
2023-10-26T05:24:20.496Z,7.25
2023-10-26T05:27:45.422Z,6.18
2023-10-26T05:31:21.854Z,6.03
2023-10-26T05:34:56.319Z,5.05
2023-10-26T05:38:50.710Z,7.47
2023-10-26T05:42:25.135Z,5.47
2023-10-26T05:46:12.836Z,5.47
2023-10-26T05:49:40.720Z,5.70
2023-10-26T05:56:36.362Z,5.30
2023-10-26T06:00:30.044Z,5.60
2023-10-26T06:03:53.874Z,6.30
2023-10-26T06:07:21.726Z,6.75
2023-10-26T06:14:11.240Z,6.50
2023-10-26T06:17:35.161Z,6.78
2023-10-26T06:20:59.764Z,5.43
2023-10-26T06:24:23.584Z,6.07
2023-10-26T06:27:50.838Z,5.47
2023-10-26T06:31:17.600Z,6.28
2023-10-26T06:34:41.829Z,6.13
2023-10-26T06:38:05.830Z,6.32
2023-10-26T06:41:29.787Z,6.55
2023-10-26T06:44:53.589Z,5.57
2023-10-26T06:48:19.653Z,5.78
2023-10-26T06:51:44.183Z,6.20
2023-10-26T06:55:15.483Z,6.55
2023-10-26T06:58:44.705Z,5.85
2023-10-26T07:02:12.286Z,6.10
2023-10-26T07:05:36.391Z,5.85
2023-10-26T07:09:00.303Z,5.63
2023-10-26T07:12:24.320Z,6.00
2023-10-26T07:15:48.667Z,5.15
2023-10-26T07:19:12.419Z,5.38
2023-10-26T07:22:36.670Z,4.80
2023-10-26T07:26:00.625Z,5.90
2023-10-26T07:29:24.431Z,6.07
2023-10-26T07:32:48.431Z,5.50
2023-10-26T07:36:12.397Z,5.10
2023-10-26T07:39:44.727Z,5.40
2023-10-26T07:43:12.491Z,5.35
2023-10-26T07:46:36.484Z,4.60
2023-10-26T07:50:00.493Z,5.40
2023-10-26T07:53:30.447Z,4.50
2023-10-26T07:57:06.867Z,4.88
2023-10-26T08:00:43.280Z,5.05
2023-10-26T08:04:19.491Z,5.28
2023-10-26T08:07:56.131Z,4.70
2023-10-26T08:11:25.546Z,4.68
2023-10-26T08:16:11.003Z,4.10
2023-10-26T08:18:33.888Z,4.28
2023-10-26T08:21:57.901Z,4.40
2023-10-26T08:25:24.834Z,4.50
2023-10-26T08:28:49.550Z,4.53
2023-10-26T08:32:13.442Z,4.38
2023-10-26T08:35:38.307Z,4.22
2023-10-26T08:39:02.300Z,3.80
2023-10-26T08:42:32.971Z,4.47
2023-10-26T08:45:59.300Z,4.05
2023-10-26T08:49:23.611Z,3.67
2023-10-26T08:52:49.152Z,5.15
2023-10-26T08:56:13.147Z,4.50
2023-10-26T08:59:37.274Z,4.20
2023-10-26T09:03:02.748Z,3.38
2023-10-26T09:06:35.707Z,4.15
2023-10-26T09:09:59.663Z,4.07
2023-10-26T09:13:24.673Z,5.22
2023-10-26T09:16:49.750Z,3.67
2023-10-26T09:20:18.654Z,3.47
2023-10-26T09:23:43.382Z,4.45
2023-10-26T09:27:08.497Z,4.03
2023-10-26T09:30:37.594Z,4.68
2023-10-26T09:34:10.662Z,3.85
2023-10-26T09:37:46.553Z,5.13
2023-10-26T09:41:12.648Z,3.78
2023-10-26T09:44:52.086Z,4.60
2023-10-26T09:48:20.397Z,4.07
2023-10-26T09:51:45.399Z,4.88
2023-10-26T09:55:13.884Z,4.70
2023-10-26T09:58:42.262Z,5.70
2023-10-26T10:02:25.112Z,5.32
2023-10-26T10:05:49.900Z,5.78
2023-10-26T10:09:33.935Z,4.80
2023-10-26T10:13:04.014Z,4.43
2023-10-26T10:16:37.854Z,5.20
2023-10-26T10:20:18.425Z,4.82
2023-10-26T10:23:43.104Z,4.45
2023-10-26T10:27:13.896Z,5.43
2023-10-26T10:30:47.955Z,5.03
2023-10-26T10:34:22.058Z,4.97
2023-10-26T10:38:17.244Z,4.70
2023-10-26T10:41:53.179Z,5.70
2023-10-26T10:45:17.865Z,5.30
2023-10-26T10:48:57.874Z,3.78
2023-10-26T10:52:31.915Z,5.05
2023-10-26T10:55:55.740Z,4.15
2023-10-26T10:59:20.136Z,3.95
2023-10-26T11:02:50.737Z,3.15
2023-10-26T11:06:17.583Z,3.60
2023-10-26T11:09:41.428Z,3.58
2023-10-26T11:13:08.798Z,3.05
2023-10-26T11:16:33.280Z,3.42
2023-10-26T11:19:57.985Z,3.50
2023-10-26T11:23:23.094Z,3.22
2023-10-26T11:27:05.212Z,3.35
2023-10-26T11:30:29.039Z,3.13
2023-10-26T11:33:54.886Z,3.55
2023-10-26T11:37:25.413Z,3.03
2023-10-26T11:40:49.152Z,4.07
2023-10-26T11:44:28.642Z,3.47
2023-10-26T11:47:57.106Z,3.30
2023-10-26T11:51:23.184Z,3.30
2023-10-26T11:54:53.423Z,2.80
2023-10-26T11:58:17.522Z,3.35
2023-10-26T12:01:41.248Z,2.65
2023-10-26T12:05:08.552Z,2.30
2023-10-26T12:08:32.194Z,3.00
2023-10-26T12:11:56.055Z,2.20
2023-10-26T12:15:24.150Z,2.38
2023-10-26T12:18:47.757Z,2.47
2023-10-26T12:22:11.272Z,1.80
2023-10-26T12:25:35.079Z,1.83
2023-10-26T12:28:58.645Z,2.50
2023-10-26T12:32:23.093Z,2.03
2023-10-26T12:35:47.913Z,2.00
2023-10-26T12:39:11.220Z,1.75
2023-10-26T12:42:35.945Z,1.67
2023-10-26T12:46:00.423Z,1.65
2023-10-26T12:49:24.107Z,1.63
2023-10-26T12:52:48.597Z,1.80
2023-10-26T12:56:11.890Z,2.03
2023-10-26T12:59:35.628Z,1.42
2023-10-26T13:02:59.142Z,1.35
2023-10-26T13:06:22.432Z,2.08
2023-10-26T13:09:46.095Z,1.38
2023-10-26T13:13:09.593Z,2.20
2023-10-26T13:16:57.439Z,2.17
2023-10-26T13:20:16.442Z,1.75
2023-10-26T13:23:39.730Z,2.03
2023-10-26T13:27:03.016Z,2.08
2023-10-26T13:30:26.206Z,2.13
2023-10-26T13:33:49.812Z,1.73
2023-10-26T13:37:13.106Z,2.08
2023-10-26T13:40:36.476Z,2.13
2023-10-26T13:44:02.490Z,1.58
2023-10-26T13:47:25.802Z,1.45
2023-10-26T13:50:57.831Z,2.67
2023-10-26T13:54:22.553Z,2.22
2023-10-26T13:57:45.843Z,2.53
2023-10-26T14:01:14.299Z,2.40
2023-10-26T14:04:37.432Z,2.45
2023-10-26T14:08:01.120Z,2.50
2023-10-26T14:11:22.765Z,2.38
2023-10-26T14:14:44.573Z,1.98
2023-10-26T14:18:06.293Z,1.90
2023-10-26T14:21:27.887Z,1.98
2023-10-26T14:24:49.632Z,1.75
2023-10-26T14:28:11.505Z,2.28
2023-10-26T14:31:33.134Z,2.20
2023-10-26T14:34:54.877Z,2.33
2023-10-26T14:38:16.494Z,1.50
2023-10-26T14:41:38.281Z,2.20
2023-10-26T14:45:00.025Z,1.48
2023-10-26T14:48:21.720Z,1.65
2023-10-26T14:51:45.617Z,1.75
2023-10-26T14:55:10.019Z,1.73
2023-10-26T14:58:32.100Z,1.50
2023-10-26T15:01:53.785Z,2.33
2023-10-26T15:08:37.266Z,2.10
2023-10-26T15:12:01.100Z,2.00
2023-10-26T15:15:23.624Z,1.73
2023-10-26T15:18:46.162Z,2.47
2023-10-26T15:22:08.043Z,2.10
2023-10-26T15:25:29.779Z,3.05
2023-10-26T15:28:51.566Z,3.05
2023-10-26T15:32:13.326Z,2.55
2023-10-26T15:35:35.056Z,2.50
2023-10-26T15:38:58.262Z,2.67
2023-10-26T15:42:19.998Z,3.28
2023-10-26T15:45:48.309Z,2.92
2023-10-26T15:49:31.701Z,2.75
2023-10-26T15:52:51.958Z,3.40
2023-10-26T15:56:13.985Z,2.92
2023-10-26T15:59:35.838Z,2.20
2023-10-26T16:02:58.018Z,3.40
2023-10-26T16:06:20.154Z,3.17
2023-10-26T16:09:42.073Z,2.60
2023-10-26T16:13:03.947Z,2.92
2023-10-26T16:16:25.811Z,2.30
2023-10-26T16:19:47.551Z,2.75
2023-10-26T16:23:09.266Z,2.50
2023-10-26T16:26:31.071Z,3.50
2023-10-26T16:29:53.174Z,2.78
2023-10-26T16:33:14.944Z,2.35
2023-10-26T16:36:36.771Z,2.60
2023-10-26T16:39:58.642Z,22.83
2023-10-26T16:43:21.195Z,8.25
2023-10-26T16:46:43.025Z,4.45
2023-10-26T16:50:05.440Z,4.28
2023-10-26T16:56:55.597Z,2.78
2023-10-26T17:00:17.801Z,2.17
2023-10-26T17:03:40.097Z,2.92
2023-10-26T17:07:01.958Z,2.88
2023-10-26T17:10:23.814Z,3.00
2023-10-26T17:13:45.631Z,3.25
2023-10-26T17:17:07.355Z,2.85
2023-10-26T17:20:29.145Z,2.25
2023-10-26T17:23:51.021Z,2.88
2023-10-26T17:27:12.906Z,2.45
2023-10-26T17:30:36.032Z,2.33
2023-10-26T17:33:57.970Z,2.40
2023-10-26T17:37:19.897Z,2.20
2023-10-26T17:40:42.885Z,4.20
2023-10-26T17:44:05.887Z,3.05
2023-10-26T17:47:29.017Z,2.20
2023-10-26T17:50:50.911Z,2.63
2023-10-26T17:54:13.550Z,2.85
2023-10-26T17:57:35.422Z,2.83
2023-10-26T18:01:07.478Z,2.45
2023-10-26T18:04:29.804Z,2.67
2023-10-26T18:07:51.452Z,1.98
2023-10-26T18:11:13.213Z,3.17
2023-10-26T18:14:35.097Z,2.53
2023-10-26T18:17:56.913Z,2.17
2023-10-26T18:21:18.638Z,2.45
2023-10-26T18:24:40.632Z,2.80
2023-10-26T18:28:02.297Z,2.53
2023-10-26T18:31:24.154Z,2.08
2023-10-26T18:34:46.966Z,1.88
2023-10-26T18:38:09.417Z,2.53
2023-10-26T18:41:32.432Z,2.05
2023-10-26T18:44:54.222Z,2.63
2023-10-26T18:48:16.270Z,2.70
2023-10-26T18:51:41.578Z,2.88
2023-10-26T18:55:03.652Z,2.60
2023-10-26T18:58:25.969Z,2.80
2023-10-26T19:01:48.226Z,2.80
2023-10-26T19:05:10.671Z,2.42
2023-10-26T19:08:32.453Z,2.67
2023-10-26T19:11:54.218Z,2.63
2023-10-26T19:15:17.244Z,2.88
2023-10-26T19:18:38.996Z,2.08
2023-10-26T19:22:00.767Z,3.28
2023-10-26T19:25:23.092Z,1.80
2023-10-26T19:28:45.572Z,1.77
2023-10-26T19:32:07.423Z,2.60
2023-10-26T19:35:29.366Z,2.63
2023-10-26T19:38:51.794Z,2.60
2023-10-26T19:42:14.963Z,3.28
2023-10-26T19:45:38.306Z,3.05
2023-10-26T19:49:01.648Z,2.15
2023-10-26T19:52:25.154Z,3.95
2023-10-26T19:55:49.541Z,3.22
2023-10-26T19:59:13.431Z,2.55
2023-10-26T20:02:37.312Z,2.35
2023-10-26T20:06:05.132Z,2.92
2023-10-26T20:09:28.835Z,2.47
2023-10-26T20:12:52.808Z,2.33
2023-10-26T20:16:16.623Z,2.38
2023-10-26T20:19:40.593Z,2.17
2023-10-26T20:23:05.105Z,1.63
2023-10-26T20:26:28.921Z,3.05
2023-10-26T20:29:52.834Z,2.70
2023-10-26T20:33:17.736Z,2.83
2023-10-26T20:36:51.593Z,2.00
2023-10-26T20:40:15.414Z,2.45
2023-10-26T20:43:39.200Z,2.20
2023-10-26T20:47:03.444Z,1.77
2023-10-26T20:50:30.430Z,1.85
2023-10-26T20:53:58.013Z,2.00
2023-10-26T20:57:21.757Z,1.95
2023-10-26T21:00:45.576Z,1.77
2023-10-26T21:04:09.362Z,1.80
2023-10-26T21:07:33.241Z,1.85
2023-10-26T21:10:57.061Z,1.42
2023-10-26T21:14:20.769Z,2.28
2023-10-26T21:17:44.012Z,1.90
2023-10-26T21:21:08.287Z,2.05
2023-10-26T21:24:32.633Z,1.90
2023-10-26T21:27:55.995Z,2.45
2023-10-26T21:31:17.769Z,1.42
2023-10-26T21:34:39.487Z,1.63
2023-10-26T21:38:01.226Z,1.85
2023-10-26T21:41:22.955Z,2.72
2023-10-26T21:44:44.970Z,2.92
2023-10-26T21:48:06.906Z,1.98
2023-10-26T21:51:29.485Z,1.80
2023-10-26T21:54:51.233Z,2.00
2023-10-26T21:58:12.963Z,2.22
2023-10-26T22:01:34.897Z,2.13
2023-10-26T22:04:56.604Z,2.55
2023-10-26T22:08:18.468Z,1.75
2023-10-26T22:11:40.176Z,0.75
2023-10-26T22:15:01.970Z,2.10
2023-10-26T22:18:23.867Z,2.83
2023-10-26T22:21:45.903Z,1.70
2023-10-26T22:25:07.790Z,1.13
2023-10-26T22:28:32.866Z,1.33
2023-10-26T22:31:54.850Z,1.85
2023-10-26T22:35:16.862Z,0.90
2023-10-26T22:38:39.214Z,2.38
2023-10-26T22:42:01.269Z,2.10
2023-10-26T22:45:23.088Z,1.40
2023-10-26T22:48:46.455Z,1.70
2023-10-26T22:52:08.179Z,2.42
2023-10-26T22:55:30.074Z,2.25
2023-10-26T22:58:51.960Z,2.17
2023-10-26T23:02:19.520Z,1.83
2023-10-26T23:05:44.295Z,1.70
2023-10-26T23:09:06.864Z,1.67
2023-10-26T23:12:28.535Z,1.98
2023-10-26T23:15:50.456Z,2.78
2023-10-26T23:19:12.224Z,2.55
2023-10-26T23:22:34.215Z,2.20
2023-10-26T23:25:56.012Z,2.33
2023-10-26T23:29:17.930Z,2.83
2023-10-26T23:32:39.626Z,2.97
2023-10-26T23:36:07.920Z,3.60
2023-10-26T23:39:29.620Z,3.08
2023-10-26T23:42:51.441Z,1.88
2023-10-26T23:46:13.208Z,2.90
2023-10-26T23:49:35.131Z,2.60
2023-10-26T23:52:56.751Z,2.83
2023-10-26T23:56:18.568Z,3.10
2023-10-26T23:59:40.256Z,2.05
